createdAt,value
2022-12-15T00:01:54.506Z,17
2022-12-15T00:06:52.125Z,16
2022-12-15T00:11:52.695Z,17
2022-12-15T00:16:52.713Z,19
2022-12-15T00:21:53.309Z,19
2022-12-15T00:26:52.695Z,18
2022-12-15T00:31:52.210Z,15
2022-12-15T00:36:53.375Z,17
2022-12-15T00:41:53.450Z,14
2022-12-15T00:46:55.969Z,17
2022-12-15T00:51:52.169Z,17
2022-12-15T00:56:52.213Z,17
2022-12-15T01:01:53.469Z,16
2022-12-15T01:06:53.380Z,16
2022-12-15T01:11:52.794Z,16
2022-12-15T01:16:52.236Z,14
2022-12-15T01:21:52.866Z,15
2022-12-15T01:26:52.223Z,12
2022-12-15T01:31:53.034Z,13
2022-12-15T01:36:53.484Z,13
2022-12-15T01:41:53.479Z,12
2022-12-15T01:46:53.530Z,13
2022-12-15T01:51:53.450Z,15
2022-12-15T01:56:52.287Z,13
2022-12-15T02:01:53.046Z,14
2022-12-15T02:06:52.307Z,16
2022-12-15T02:11:52.913Z,15
2022-12-15T02:16:52.307Z,15
2022-12-15T02:21:52.966Z,15
2022-12-15T02:26:52.418Z,14
2022-12-15T02:31:52.993Z,13
2022-12-15T02:36:53.083Z,13
2022-12-15T02:41:53.615Z,14
2022-12-15T02:46:52.991Z,12
2022-12-15T02:51:53.009Z,14
2022-12-15T02:56:53.032Z,15
2022-12-15T03:01:53.154Z,16
2022-12-15T03:06:57.356Z,16
2022-12-15T03:11:53.630Z,15
2022-12-15T03:16:53.974Z,13
2022-12-15T03:21:52.482Z,14
2022-12-15T03:26:52.399Z,14
2022-12-15T03:31:53.023Z,44
2022-12-15T03:36:52.947Z,66
2022-12-15T03:41:52.955Z,19
2022-12-15T03:46:52.965Z,27
2022-12-15T03:51:52.960Z,21
2022-12-15T03:56:53.585Z,52
2022-12-15T04:01:53.085Z,40
2022-12-15T04:06:52.487Z,72
2022-12-15T04:11:53.134Z,175
2022-12-15T04:16:53.130Z,141
2022-12-15T04:21:53.008Z,113
2022-12-15T04:26:52.528Z,91
2022-12-15T04:31:53.054Z,207
2022-12-15T04:36:53.051Z,186
2022-12-15T04:41:53.658Z,148
2022-12-15T04:46:52.544Z,58
2022-12-15T04:51:53.076Z,117
2022-12-15T04:56:53.724Z,28
2022-12-15T05:01:53.246Z,30
2022-12-15T05:06:53.704Z,32
2022-12-15T05:11:53.715Z,43
2022-12-15T05:16:53.193Z,132
2022-12-15T05:21:53.253Z,66
2022-12-15T05:26:53.443Z,35
2022-12-15T05:31:53.282Z,70
2022-12-15T05:36:53.294Z,33
2022-12-15T05:41:53.297Z,27
2022-12-15T05:46:53.392Z,22
2022-12-15T05:51:53.455Z,18
2022-12-15T05:56:53.377Z,13
2022-12-15T06:01:53.354Z,16
2022-12-15T06:06:53.883Z,16
2022-12-15T06:11:53.919Z,21
2022-12-15T06:16:55.238Z,17
2022-12-15T06:21:53.337Z,17
2022-12-15T06:26:53.357Z,16
2022-12-15T06:31:54.020Z,16
2022-12-15T06:36:54.024Z,14
2022-12-15T06:41:54.127Z,13
2022-12-15T06:46:54.063Z,12
2022-12-15T06:51:54.000Z,12
2022-12-15T06:56:52.811Z,11
2022-12-15T07:01:53.471Z,9
2022-12-15T07:06:55.150Z,9
2022-12-15T07:11:53.306Z,8
2022-12-15T07:16:54.120Z,8
2022-12-15T07:21:53.420Z,7
2022-12-15T07:26:53.482Z,9
2022-12-15T07:31:52.911Z,7
2022-12-15T07:36:54.156Z,7
2022-12-15T07:41:55.302Z,7
2022-12-15T07:46:52.889Z,6
2022-12-15T07:51:52.877Z,6
2022-12-15T07:56:53.502Z,6
2022-12-15T08:01:56.741Z,7
2022-12-15T08:06:52.958Z,5
2022-12-15T08:11:53.507Z,6
2022-12-15T08:16:53.585Z,7
2022-12-15T08:21:53.429Z,6
2022-12-15T08:26:53.545Z,6
2022-12-15T08:31:55.678Z,6
2022-12-15T08:36:53.499Z,7
2022-12-15T08:41:55.284Z,7
2022-12-15T08:46:53.490Z,7
2022-12-15T08:51:53.026Z,7
2022-12-15T08:56:53.615Z,8
2022-12-15T09:01:53.788Z,8
2022-12-15T09:06:54.138Z,6
2022-12-15T09:11:53.547Z,7
2022-12-15T09:16:54.390Z,8
2022-12-15T09:21:53.046Z,6
2022-12-15T09:26:53.110Z,8
2022-12-15T09:31:53.567Z,7
2022-12-15T09:36:54.201Z,6
2022-12-15T09:41:53.576Z,7
2022-12-15T09:46:53.580Z,8
2022-12-15T09:51:53.601Z,9
2022-12-15T09:56:53.635Z,8
2022-12-15T10:02:11.168Z,8
2022-12-15T10:06:53.781Z,7
2022-12-15T10:11:53.633Z,8
2022-12-15T10:16:54.282Z,8
2022-12-15T10:21:53.668Z,8
2022-12-15T10:26:58.475Z,7
2022-12-15T10:31:53.779Z,9
2022-12-15T10:36:55.494Z,8
2022-12-15T10:41:53.216Z,7
2022-12-15T10:46:53.711Z,10
2022-12-15T10:51:53.184Z,7
2022-12-15T10:56:55.011Z,8
2022-12-15T11:01:53.843Z,6
2022-12-15T11:06:54.411Z,7
2022-12-15T11:11:56.793Z,8
2022-12-15T11:17:02.900Z,8
2022-12-15T11:21:53.752Z,7
2022-12-15T11:26:54.370Z,7
2022-12-15T11:31:54.407Z,7
2022-12-15T11:36:55.645Z,8
2022-12-15T11:41:53.254Z,8
2022-12-15T11:46:53.274Z,8
2022-12-15T11:51:54.410Z,9
2022-12-15T11:56:53.874Z,8
2022-12-15T12:02:00.869Z,7
2022-12-15T12:06:54.445Z,10
2022-12-15T12:11:53.856Z,9
2022-12-15T12:16:54.471Z,9
2022-12-15T12:21:53.327Z,9
2022-12-15T12:26:53.875Z,11
2022-12-15T12:31:56.402Z,9
2022-12-15T12:36:53.885Z,10
2022-12-15T12:41:54.706Z,10
2022-12-15T12:46:53.396Z,12
2022-12-15T12:51:53.910Z,12
2022-12-15T12:56:53.916Z,12
2022-12-15T13:01:54.702Z,11
2022-12-15T13:06:53.890Z,13
2022-12-15T13:11:53.936Z,14
2022-12-15T13:17:24.710Z,13
2022-12-15T13:21:53.457Z,12
2022-12-15T13:26:53.447Z,12
2022-12-15T13:31:54.737Z,12
2022-12-15T13:36:55.697Z,15
2022-12-15T13:42:31.933Z,13
2022-12-15T13:46:53.490Z,17
2022-12-15T13:51:53.497Z,16
2022-12-15T13:56:54.181Z,13
2022-12-15T14:01:53.556Z,14
2022-12-15T14:06:57.174Z,15
2022-12-15T14:11:54.373Z,14
2022-12-15T14:16:54.912Z,13
2022-12-15T14:21:53.617Z,15
2022-12-15T14:26:53.565Z,12
2022-12-15T14:31:54.269Z,14
2022-12-15T14:36:53.621Z,17
2022-12-15T14:41:53.614Z,16
2022-12-15T14:46:54.934Z,16
2022-12-15T14:51:54.911Z,15
2022-12-15T14:56:54.860Z,16
2022-12-15T15:01:58.443Z,15
2022-12-15T15:06:54.862Z,15
2022-12-15T15:11:54.326Z,14
2022-12-15T15:16:53.852Z,14
2022-12-15T15:21:53.675Z,17
2022-12-15T15:26:53.753Z,17
2022-12-15T15:31:54.915Z,16
2022-12-15T15:36:53.703Z,18
2022-12-15T15:41:54.310Z,14
2022-12-15T15:46:54.919Z,16
2022-12-15T15:51:56.207Z,15
2022-12-15T15:56:53.742Z,15
2022-12-15T16:01:53.906Z,16
2022-12-15T16:06:54.394Z,15
2022-12-15T16:11:54.998Z,15
2022-12-15T16:16:54.355Z,15
2022-12-15T16:22:11.908Z,15
2022-12-15T16:26:54.352Z,14
2022-12-15T16:31:55.189Z,18
2022-12-15T16:36:54.998Z,15
2022-12-15T16:41:55.034Z,15
2022-12-15T16:46:53.850Z,21
2022-12-15T16:51:54.428Z,18
2022-12-15T16:56:54.426Z,24
2022-12-15T17:01:54.654Z,20
2022-12-15T17:06:55.063Z,18
2022-12-15T17:11:54.563Z,14
2022-12-15T17:16:55.081Z,15
2022-12-15T17:21:55.143Z,15
2022-12-15T17:26:53.877Z,16
2022-12-15T17:31:54.587Z,14
2022-12-15T17:36:54.485Z,14
2022-12-15T17:42:02.791Z,15
2022-12-15T17:46:55.248Z,13
2022-12-15T17:51:55.155Z,11
2022-12-15T17:56:54.595Z,11
2022-12-15T18:01:55.286Z,12
2022-12-15T18:07:01.171Z,11
2022-12-15T18:11:55.225Z,11
2022-12-15T18:16:53.978Z,9
2022-12-15T18:21:55.188Z,9
2022-12-15T18:26:54.507Z,10
2022-12-15T18:31:54.810Z,11
2022-12-15T18:36:54.005Z,10
2022-12-15T18:41:54.881Z,12
2022-12-15T18:46:55.557Z,13
2022-12-15T18:51:54.047Z,13
2022-12-15T18:56:54.753Z,13
2022-12-15T19:01:54.863Z,11
2022-12-15T19:06:55.273Z,12
2022-12-15T19:11:55.348Z,12
2022-12-15T19:16:54.734Z,12
2022-12-15T19:21:55.291Z,13
2022-12-15T19:26:55.284Z,13
2022-12-15T19:31:54.851Z,13
2022-12-15T19:36:54.215Z,13
2022-12-15T19:41:54.822Z,12
2022-12-15T19:46:54.745Z,12
2022-12-15T19:51:54.895Z,12
2022-12-15T19:56:54.736Z,12
2022-12-15T20:01:54.894Z,11
2022-12-15T20:06:55.367Z,13
2022-12-15T20:11:55.394Z,11
2022-12-15T20:16:54.861Z,12
2022-12-15T20:21:55.305Z,12
2022-12-15T20:26:54.765Z,12
2022-12-15T20:31:56.742Z,13
2022-12-15T20:36:54.848Z,13
2022-12-15T20:41:59.054Z,13
2022-12-15T20:46:55.508Z,13
2022-12-15T20:51:55.461Z,12
2022-12-15T20:56:55.416Z,12
2022-12-15T21:01:55.142Z,11
2022-12-15T21:06:55.497Z,11
2022-12-15T21:11:55.504Z,11
2022-12-15T21:16:55.097Z,12
2022-12-15T21:21:55.836Z,11
2022-12-15T21:26:54.905Z,10
2022-12-15T21:31:56.736Z,11
2022-12-15T21:36:54.896Z,11
2022-12-15T21:42:24.107Z,12
2022-12-15T21:46:55.437Z,11
2022-12-15T21:51:55.155Z,12
2022-12-15T21:56:55.598Z,11
2022-12-15T22:01:54.499Z,12
2022-12-15T22:06:54.371Z,11
2022-12-15T22:11:55.463Z,10
2022-12-15T22:16:54.998Z,11
2022-12-15T22:21:55.584Z,11
2022-12-15T22:26:55.571Z,10
2022-12-15T22:31:55.651Z,12
2022-12-15T22:36:55.185Z,10
2022-12-15T22:41:54.419Z,10
2022-12-15T22:46:55.745Z,12
2022-12-15T22:51:55.174Z,10
2022-12-15T22:56:55.179Z,12
2022-12-15T23:01:55.091Z,11
2022-12-15T23:06:55.078Z,11
2022-12-15T23:11:55.706Z,11
2022-12-15T23:16:54.605Z,9
2022-12-15T23:21:55.720Z,10
2022-12-15T23:26:55.122Z,11
2022-12-15T23:31:55.765Z,11
2022-12-15T23:36:55.629Z,12
2022-12-15T23:41:54.537Z,11
2022-12-15T23:46:55.174Z,11
2022-12-15T23:51:55.129Z,11
2022-12-15T23:56:54.682Z,12
